»·PEaware :: JZA340 KLAS-KSAN

JZA340 :: KLAS-KSAN

FLIGHT INFORMATION

Flight Status: Arrived
Operator:
Air Canada Jazz
More flights by this operator :: More flights under this callsign
Pilot: Mike G. (11411)
Aircraft: CANADAIR CL-600 CRJ-900
(CRJ9)
More flights by this aircraft type
Origin: KLAS McCarran Intl
United States
Destination: KSAN San Diego Intl-Lindbergh
United States
More flights between these airports :: More routes between these airports
Route: BOACH8 LVELL LUCKI1
File this flight plan on PilotEdge
Remarks: RMK / SIMBRIEF
Altitude:
(Current/Filed)
32,000ft
Speed:
(Current/Filed)
423kts
Departed: 07-Jun-19 03:03 PM
Arrived: 07-Jun-19 03:47 PM
Distance/Time
Traveled:
225nm/0:43
Distance/Time
To Go:
Arrived

Flight Plot

Page will automatically refresh every two minutes.

Flight plan parsing failed; only flown route is shown


Map Options




Map Legend


Flown Route
Filed Route
Departure Airport
Arrival Airport
Navaid (VOR, NDB)
Fix

Horizontal Profiles

Position Reports

Time Latitude Longitude Heading Altitude Ground
Speed
07-Jun-19 14:02 36.083143 -115.153345 135 2122ft 0kts
07-Jun-19 14:03 36.083143 -115.153345 135 2122ft 0kts
07-Jun-19 14:04 36.083143 -115.153345 135 2122ft 0kts
07-Jun-19 14:05 36.083143 -115.153345 135 2122ft 0kts
07-Jun-19 14:06 36.083143 -115.153345 135 2122ft 0kts
07-Jun-19 14:07 36.083143 -115.153345 135 2122ft 0kts
07-Jun-19 14:08 36.083143 -115.153345 135 2122ft 0kts
07-Jun-19 14:09 36.083143 -115.153345 135 2122ft 0kts
07-Jun-19 14:10 36.083143 -115.153345 135 2122ft 0kts
07-Jun-19 14:11 36.083143 -115.153345 135 2122ft 0kts
07-Jun-19 14:12 36.083143 -115.153345 135 2122ft 0kts
07-Jun-19 14:13 36.083143 -115.153345 135 2122ft 0kts
07-Jun-19 14:14 36.083143 -115.153345 135 2122ft 0kts
07-Jun-19 14:15 36.083143 -115.153345 135 2122ft 0kts
07-Jun-19 14:16 36.083143 -115.153345 135 2122ft 0kts
07-Jun-19 14:17 36.083143 -115.153345 135 2122ft 0kts
07-Jun-19 14:18 36.083143 -115.153345 135 2122ft 0kts
07-Jun-19 14:19 36.083143 -115.153345 135 2122ft 0kts
07-Jun-19 14:20 36.083143 -115.153345 135 2122ft 0kts
07-Jun-19 14:21 36.083143 -115.153345 135 2122ft 0kts
07-Jun-19 14:22 36.083143 -115.153345 135 2122ft 0kts
07-Jun-19 14:23 36.083143 -115.153345 135 2122ft 0kts
07-Jun-19 14:24 36.083143 -115.153345 135 2122ft 0kts
07-Jun-19 14:25 36.083143 -115.153345 135 2122ft 0kts
07-Jun-19 14:26 36.083143 -115.153345 135 2122ft 0kts
07-Jun-19 14:27 36.083143 -115.153345 135 2122ft 0kts
07-Jun-19 14:28 36.083143 -115.153345 135 2122ft 0kts
07-Jun-19 14:29 36.083143 -115.153345 135 2122ft 0kts
07-Jun-19 14:30 36.083143 -115.153345 135 2122ft 0kts
07-Jun-19 14:31 36.083143 -115.153345 135 2122ft 0kts
07-Jun-19 14:32 36.083143 -115.153345 135 2122ft 0kts
07-Jun-19 14:33 36.083143 -115.153345 135 2122ft 0kts
07-Jun-19 14:34 36.083143 -115.153345 135 2122ft 0kts
07-Jun-19 14:35 36.083143 -115.153345 135 2122ft 0kts
07-Jun-19 14:36 36.083143 -115.153345 135 2122ft 0kts
07-Jun-19 14:37 36.083143 -115.153345 135 2122ft 0kts
07-Jun-19 14:38 36.083143 -115.153345 135 2122ft 0kts
07-Jun-19 14:39 36.083143 -115.153345 135 2122ft 0kts
07-Jun-19 14:40 36.083143 -115.153345 135 2122ft 0kts
07-Jun-19 14:41 36.083350 -115.153598 135 2122ft 2kts
07-Jun-19 14:42 36.083669 -115.153989 135 2122ft 0kts
07-Jun-19 14:43 36.083668 -115.153988 135 2122ft 0kts
07-Jun-19 14:44 36.083667 -115.153987 135 2122ft 0kts
07-Jun-19 14:45 36.083666 -115.153985 135 2122ft 0kts
07-Jun-19 14:46 36.083665 -115.153984 135 2122ft 0kts
07-Jun-19 14:47 36.083664 -115.153982 135 2122ft 0kts
07-Jun-19 14:48 36.083662 -115.153981 135 2122ft 0kts
07-Jun-19 14:49 36.083661 -115.153979 135 2122ft 0kts
07-Jun-19 14:51 36.083660 -115.153978 135 2122ft 0kts
07-Jun-19 14:52 36.083648 -115.153964 136 2122ft 1kts
07-Jun-19 14:53 36.081169 -115.153788 159 2122ft 17kts
07-Jun-19 14:54 36.077805 -115.149955 92 2122ft 17kts
07-Jun-19 14:55 36.077439 -115.143850 90 2122ft 18kts
07-Jun-19 14:56 36.077506 -115.137282 91 2122ft 19kts
07-Jun-19 14:57 36.077534 -115.130224 89 2122ft 21kts
07-Jun-19 14:58 36.077497 -115.122787 89 2122ft 22kts
07-Jun-19 14:59 36.077272 -115.121377 157 2122ft 0kts
07-Jun-19 15:00 36.077270 -115.121377 157 2122ft 0kts
07-Jun-19 15:01 36.077269 -115.121376 157 2122ft 0kts
07-Jun-19 15:02 36.076355 -115.122096 266 2122ft 3kts
07-Jun-19 15:03 36.076291 -115.129740 269 2122ft 108kts
07-Jun-19 15:04 36.078983 -115.188513 268 4714ft 190kts
07-Jun-19 15:05 36.064349 -115.255095 214 7830ft 221kts
07-Jun-19 15:06 36.010433 -115.283812 201 11287ft 211kts
07-Jun-19 15:07 35.952770 -115.306035 190 13731ft 239kts
07-Jun-19 15:08 35.874563 -115.312747 187 14774ft 322kts
07-Jun-19 15:09 35.775432 -115.306682 176 16320ft 390kts
07-Jun-19 15:10 35.664561 -115.294072 181 19109ft 407kts
07-Jun-19 15:11 35.549268 -115.300375 185 21662ft 422kts
07-Jun-19 15:12 35.429599 -115.304522 185 23889ft 436kts
07-Jun-19 15:12 35.329901 -115.308470 185 26347ft 426kts
07-Jun-19 15:14 35.191932 -115.313991 185 28912ft 421kts
07-Jun-19 15:15 35.075082 -115.318677 185 30742ft 418kts
07-Jun-19 15:15 34.975693 -115.322482 185 31244ft 437kts
07-Jun-19 15:16 34.851882 -115.327317 185 31792ft 456kts
07-Jun-19 15:17 34.726794 -115.349271 204 31811ft 455kts
07-Jun-19 15:18 34.609215 -115.407770 200 31825ft 460kts
07-Jun-19 15:19 34.487976 -115.458575 202 31835ft 456kts
07-Jun-19 15:20 34.370686 -115.510125 202 31845ft 444kts
07-Jun-19 15:21 34.261125 -115.574019 216 31851ft 432kts
07-Jun-19 15:22 34.154189 -115.632182 187 31841ft 432kts
07-Jun-19 15:23 34.042934 -115.678129 206 31830ft 420kts
07-Jun-19 15:24 33.938636 -115.740033 209 31815ft 419kts
07-Jun-19 15:25 33.826874 -115.797994 202 31795ft 455kts
07-Jun-19 15:26 33.709634 -115.854096 203 30685ft 428kts
07-Jun-19 15:27 33.602528 -115.903514 203 27666ft 400kts
07-Jun-19 15:28 33.508130 -115.962908 227 24669ft 374kts
07-Jun-19 15:29 33.448307 -116.058694 237 23619ft 358kts
07-Jun-19 15:30 33.386847 -116.165351 235 20895ft 396kts
07-Jun-19 15:31 33.316796 -116.260668 215 18806ft 368kts
07-Jun-19 15:32 33.225885 -116.315680 205 16205ft 364kts
07-Jun-19 15:33 33.135105 -116.368608 207 13643ft 360kts
07-Jun-19 15:34 33.048546 -116.419081 206 12121ft 335kts
07-Jun-19 15:35 32.969175 -116.476950 222 11720ft 349kts
07-Jun-19 15:36 32.898007 -116.553482 220 10366ft 329kts
07-Jun-19 15:37 32.829912 -116.621188 221 8959ft 310kts
07-Jun-19 15:38 32.767829 -116.686536 232 8223ft 281kts
07-Jun-19 15:39 32.731617 -116.769280 241 6911ft 273kts
07-Jun-19 15:40 32.697662 -116.846138 250 6144ft 255kts
07-Jun-19 15:41 32.675695 -116.922753 250 5556ft 243kts
07-Jun-19 15:42 32.687129 -116.997204 287 4277ft 228kts
07-Jun-19 15:43 32.703474 -117.066268 287 2827ft 210kts
07-Jun-19 15:44 32.717203 -117.125800 283 1127ft 154kts
07-Jun-19 15:45 32.728520 -117.169197 286 338ft 146kts
07-Jun-19 15:46 32.736111 -117.200635 273 22ft 19kts
07-Jun-19 15:47 32.735624 -117.201519 197 22ft 0kts
07-Jun-19 15:48 32.733687 -117.203324 279 22ft 0kts
07-Jun-19 15:49 32.733687 -117.203325 279 22ft 0kts
07-Jun-19 15:50 32.733687 -117.203325 279 22ft 0kts
07-Jun-19 15:51 32.733687 -117.203325 279 22ft 0kts

Navigation Log

Ident Type
Flight plan parsing failed, navigation log unavailable